createdAt,value
2023-04-02T10:48:29.539Z,51.38
2023-04-02T10:51:34.344Z,55.68
2023-04-02T10:54:18.920Z,55.16
2023-04-02T10:56:51.137Z,54.39
2023-04-02T10:59:27.155Z,54.47
2023-04-02T11:01:57.347Z,54.30
2023-04-02T11:04:31.655Z,54.75
2023-04-02T11:07:19.924Z,56.65
2023-04-02T11:09:52.078Z,56.40
2023-04-02T11:12:25.691Z,53.34
2023-04-02T11:14:54.300Z,52.81
2023-04-02T11:17:21.480Z,53.39
2023-04-02T11:19:48.290Z,55.93
2023-04-02T11:22:20.039Z,53.95
2023-04-02T11:24:54.689Z,53.68
2023-04-02T11:27:30.796Z,55.46
2023-04-02T11:30:15.825Z,53.96
2023-04-02T11:32:45.327Z,53.70
2023-04-02T11:35:30.729Z,53.85
2023-04-02T11:38:12.556Z,53.91
2023-04-02T11:40:58.500Z,51.58
2023-04-02T11:43:34.491Z,55.21
2023-04-02T11:46:04.394Z,51.92
2023-04-02T11:48:36.413Z,51.81
2023-04-02T11:51:32.380Z,50.08
2023-04-02T11:53:59.110Z,52.93
2023-04-02T11:56:46.261Z,50.21
2023-04-02T11:59:38.371Z,51.47
2023-04-02T12:02:10.815Z,52.98
2023-04-02T12:04:43.742Z,53.50
2023-04-02T12:07:36.636Z,53.79
2023-04-02T12:10:16.478Z,52.53
2023-04-02T12:12:43.642Z,53.19
2023-04-02T12:15:48.862Z,56.83
2023-04-02T12:18:22.813Z,55.38
2023-04-02T12:20:57.250Z,53.84
2023-04-02T12:23:31.263Z,52.65
2023-04-02T12:26:03.927Z,53.79
2023-04-02T12:28:33.801Z,52.75
2023-04-02T12:31:09.615Z,54.55
2023-04-02T12:33:38.117Z,51.68
2023-04-02T12:36:19.289Z,52.29
2023-04-02T12:38:58.497Z,51.48
2023-04-02T12:41:30.199Z,53.23
2023-04-02T12:44:02.057Z,53.61
2023-04-02T12:46:31.259Z,51.28
2023-04-02T12:49:37.078Z,50.17
2023-04-02T12:52:13.220Z,50.43
2023-04-02T12:54:50.143Z,46.81
2023-04-02T12:57:31.598Z,48.44
2023-04-02T13:00:00.222Z,48.74
2023-04-02T13:02:29.473Z,47.94
2023-04-02T13:05:01.641Z,45.53
2023-04-02T13:07:33.625Z,47.88
2023-04-02T13:10:02.858Z,47.88
2023-04-02T13:12:41.595Z,45.98
2023-04-02T13:15:22.807Z,49.47
2023-04-02T13:18:23.107Z,50.65
2023-04-02T13:21:00.178Z,49.98
2023-04-02T13:23:29.668Z,47.67
2023-04-02T13:25:58.557Z,48.03
2023-04-02T13:28:28.994Z,48.41
2023-04-02T13:30:55.667Z,48.10
2023-04-02T13:33:22.499Z,46.63
2023-04-02T13:35:49.271Z,47.04
2023-04-02T13:38:15.873Z,49.70
2023-04-02T13:40:42.524Z,48.89
2023-04-02T13:43:16.947Z,48.46
2023-04-02T13:45:47.427Z,46.56
2023-04-02T13:48:16.018Z,49.31
2023-04-02T13:50:42.779Z,47.04
2023-04-02T13:53:40.541Z,45.71
2023-04-02T13:56:08.434Z,47.46
2023-04-02T13:58:34.982Z,47.09
2023-04-02T14:01:01.984Z,48.95
2023-04-02T14:03:29.595Z,50.91
2023-04-02T14:06:28.397Z,51.34
2023-04-02T14:08:54.893Z,50.00
2023-04-02T14:11:30.464Z,49.37
2023-04-02T14:14:03.023Z,49.38
2023-04-02T14:16:35.646Z,50.12
2023-04-02T14:19:39.002Z,51.56
2023-04-02T14:22:08.464Z,50.74
2023-04-02T14:24:53.702Z,52.74
2023-04-02T14:27:40.467Z,54.86
2023-04-02T14:30:07.143Z,53.83
2023-04-02T14:32:50.348Z,55.14
2023-04-02T14:35:26.876Z,57.05
2023-04-02T14:38:05.717Z,55.97
2023-04-02T14:40:42.202Z,54.53
2023-04-02T14:43:21.373Z,54.75
2023-04-02T14:45:58.572Z,55.84
2023-04-02T14:48:42.281Z,56.65
2023-04-02T14:51:21.375Z,56.46
2023-04-02T14:53:51.577Z,54.11
2023-04-02T14:56:23.641Z,51.68
2023-04-02T14:59:03.570Z,50.98
2023-04-02T15:01:43.426Z,49.35
2023-04-02T15:04:30.954Z,49.00
2023-04-02T15:07:04.905Z,46.33
2023-04-02T15:09:45.087Z,47.40
2023-04-02T15:12:23.907Z,45.33
2023-04-02T15:15:33.019Z,43.60
2023-04-02T15:18:11.254Z,43.80
2023-04-02T15:21:16.660Z,41.41
2023-04-02T15:23:59.059Z,41.69
2023-04-02T15:26:51.314Z,37.04
2023-04-02T15:29:36.452Z,35.23
2023-04-02T15:32:32.352Z,34.77
2023-04-02T15:35:14.692Z,36.14
2023-04-02T15:38:22.709Z,33.78
2023-04-02T15:41:32.324Z,32.18
2023-04-02T15:44:17.175Z,33.00
2023-04-02T15:47:03.172Z,31.62
2023-04-02T15:49:50.985Z,33.14
2023-04-02T15:52:52.753Z,34.48
2023-04-02T15:55:26.644Z,31.76
2023-04-02T15:58:30.971Z,32.85
2023-04-02T16:01:25.874Z,33.39
2023-04-02T16:04:11.638Z,29.93
2023-04-02T16:06:56.799Z,29.08
2023-04-02T16:09:34.606Z,32.04
2023-04-02T16:12:19.743Z,28.84
2023-04-02T16:14:48.326Z,29.58
2023-04-02T16:17:32.728Z,35.79
2023-04-02T16:20:24.202Z,39.68
2023-04-02T16:23:01.179Z,38.51
2023-04-02T16:25:39.128Z,37.88
2023-04-02T16:28:23.985Z,42.10
2023-04-02T16:31:08.185Z,46.03
2023-04-02T16:33:51.078Z,51.67
2023-04-02T16:36:39.780Z,52.56
2023-04-02T16:39:26.659Z,57.01
2023-04-02T16:42:21.947Z,57.20
2023-04-02T16:45:03.065Z,59.47
2023-04-02T16:48:00.685Z,62.62
2023-04-02T16:50:39.400Z,62.19
2023-04-02T16:53:11.786Z,62.93
2023-04-02T16:56:18.130Z,65.07
2023-04-02T16:59:09.349Z,64.91
2023-04-02T17:01:45.013Z,67.90
2023-04-02T17:04:49.836Z,65.93
2023-04-02T17:07:19.167Z,63.19
2023-04-02T17:09:57.602Z,61.16
2023-04-02T17:12:38.693Z,64.43
2023-04-02T17:15:28.407Z,64.09
2023-04-02T17:18:01.800Z,61.30
2023-04-02T17:20:33.203Z,62.58
2023-04-02T17:23:02.762Z,66.72
2023-04-02T17:25:37.350Z,68.37
2023-04-02T17:28:12.852Z,65.84
2023-04-02T17:30:47.774Z,64.17
2023-04-02T17:33:17.483Z,64.49
2023-04-02T17:36:09.424Z,64.64
2023-04-02T17:39:02.623Z,68.28
2023-04-02T17:41:29.157Z,71.41
2023-04-02T17:44:37.337Z,70.68
2023-04-02T17:47:20.786Z,72.70
2023-04-02T17:49:47.290Z,74.06
2023-04-02T17:52:19.705Z,72.04
2023-04-02T17:55:05.416Z,71.18
2023-04-02T17:57:44.196Z,74.22
2023-04-02T18:00:11.033Z,74.03
2023-04-02T18:02:49.784Z,74.01
2023-04-02T18:05:28.324Z,74.18
2023-04-02T18:07:57.929Z,75.60
2023-04-02T18:10:36.639Z,76.72
2023-04-02T18:13:12.042Z,73.24
2023-04-02T18:15:41.624Z,72.09
2023-04-02T18:18:26.333Z,70.70
2023-04-02T18:21:25.687Z,70.54
2023-04-02T18:24:20.600Z,70.17
2023-04-02T18:26:59.430Z,70.93
2023-04-02T18:29:29.003Z,72.12
2023-04-02T18:32:17.101Z,74.31
2023-04-02T18:35:08.075Z,74.62
2023-04-02T18:37:51.400Z,73.61
2023-04-02T18:40:46.853Z,75.34
2023-04-02T18:43:34.975Z,74.08
2023-04-02T18:46:05.838Z,72.61
2023-04-02T18:48:42.869Z,71.46
2023-04-02T18:51:21.341Z,71.45
2023-04-02T18:53:54.339Z,71.39
2023-04-02T18:56:22.402Z,72.79
2023-04-02T18:58:53.258Z,72.28
2023-04-02T19:01:31.173Z,73.26
2023-04-02T19:04:12.973Z,73.38
2023-04-02T19:06:43.876Z,74.12
2023-04-02T19:09:16.748Z,74.70
2023-04-02T19:11:43.351Z,75.82
2023-04-02T19:14:18.871Z,74.46
2023-04-02T19:16:48.474Z,74.56
2023-04-02T19:19:20.898Z,75.12
2023-04-02T19:22:12.117Z,75.07
2023-04-02T19:25:03.413Z,74.83
2023-04-02T19:27:29.856Z,74.46
2023-04-02T19:30:02.582Z,75.44
2023-04-02T19:32:49.438Z,75.28
2023-04-02T19:36:08.491Z,75.64
2023-04-02T19:39:03.132Z,75.06
2023-04-02T19:41:43.965Z,75.05
2023-04-02T19:44:13.382Z,74.56
2023-04-02T19:46:40.827Z,73.99
2023-04-02T19:49:32.751Z,74.59
2023-04-02T19:51:59.409Z,75.18
2023-04-02T19:54:26.229Z,74.59
2023-04-02T19:56:52.872Z,74.88
2023-04-02T19:59:19.463Z,74.38
2023-04-02T20:01:47.167Z,74.30
2023-04-02T20:04:14.273Z,73.98
2023-04-02T20:06:41.532Z,73.67
2023-04-02T20:09:08.823Z,73.45
2023-04-02T20:11:37.018Z,73.95
2023-04-02T20:14:04.484Z,74.74
2023-04-02T20:16:31.255Z,74.94
2023-04-02T20:18:57.955Z,73.96
2023-04-02T20:21:24.536Z,76.49
2023-04-02T20:23:55.061Z,76.17
2023-04-02T20:26:22.639Z,73.79
2023-04-02T20:28:49.562Z,73.93
2023-04-02T20:31:18.530Z,74.02
2023-04-02T20:33:45.608Z,74.59
2023-04-02T20:36:14.825Z,74.31
2023-04-02T20:38:41.667Z,74.29
2023-04-02T20:41:09.411Z,74.29
2023-04-02T20:43:37.551Z,74.62
2023-04-02T20:46:06.024Z,75.24
2023-04-02T20:48:35.706Z,74.58
2023-04-02T20:51:04.227Z,73.06
2023-04-02T20:53:32.684Z,72.96
2023-04-02T20:56:10.203Z,73.16
2023-04-02T20:58:37.843Z,74.82
2023-04-02T21:01:13.109Z,74.80
2023-04-02T21:03:40.083Z,72.07
2023-04-02T21:06:13.059Z,72.05
2023-04-02T21:08:39.799Z,71.39
2023-04-02T21:11:07.238Z,73.91
2023-04-02T21:13:36.383Z,75.03
2023-04-02T21:16:05.375Z,75.87
2023-04-02T21:18:32.303Z,76.33
2023-04-02T21:21:04.964Z,76.91
2023-04-02T21:23:32.390Z,76.80
2023-04-02T21:26:06.199Z,77.48
2023-04-02T21:28:34.039Z,76.67
2023-04-02T21:31:12.432Z,76.28
2023-04-02T21:33:44.492Z,76.39
2023-04-02T21:36:14.508Z,76.39
2023-04-02T21:38:46.305Z,77.40
2023-04-02T21:41:19.716Z,77.77
2023-04-02T21:43:48.327Z,77.43
2023-04-02T21:46:21.238Z,78.38
2023-04-02T21:48:49.318Z,78.51
2023-04-02T21:51:22.096Z,76.58
2023-04-02T21:53:49.563Z,77.62
2023-04-02T21:56:18.578Z,75.09
2023-04-02T21:58:47.007Z,74.73
2023-04-02T22:01:26.119Z,79.24
2023-04-02T22:03:55.733Z,79.23
2023-04-02T22:06:24.144Z,77.70
2023-04-02T22:08:56.848Z,79.09
2023-04-02T22:11:26.606Z,79.93
2023-04-02T22:13:53.602Z,78.49
2023-04-02T22:16:22.704Z,77.16
2023-04-02T22:18:50.804Z,76.89
2023-04-02T22:21:18.311Z,78.56
2023-04-02T22:23:45.520Z,78.02
2023-04-02T22:26:13.517Z,77.24
2023-04-02T22:28:40.487Z,78.64
2023-04-02T22:31:16.130Z,80.26
2023-04-02T22:33:44.483Z,80.43
2023-04-02T22:36:12.288Z,81.25
2023-04-02T22:38:39.086Z,80.61
2023-04-02T22:41:11.105Z,80.06
2023-04-02T22:43:38.599Z,79.36
2023-04-02T22:46:07.277Z,77.81
2023-04-02T22:48:34.545Z,77.91
2023-04-02T22:51:01.471Z,77.28
2023-04-02T22:53:29.234Z,77.49
2023-04-02T22:55:55.828Z,79.03
2023-04-02T22:58:22.687Z,79.41
2023-04-02T23:00:49.378Z,79.68
2023-04-02T23:03:16.265Z,80.24
2023-04-02T23:05:43.025Z,79.69
2023-04-02T23:08:09.825Z,80.05
2023-04-02T23:10:36.994Z,80.17
2023-04-02T23:13:03.835Z,81.05
2023-04-02T23:15:30.566Z,80.99
2023-04-02T23:17:57.198Z,80.88
2023-04-02T23:20:23.856Z,80.22
2023-04-02T23:22:50.450Z,79.18
2023-04-02T23:25:17.111Z,80.28
2023-04-02T23:27:43.681Z,80.98
2023-04-02T23:30:10.496Z,80.32
2023-04-02T23:32:37.093Z,79.91
2023-04-02T23:35:03.844Z,80.12
2023-04-02T23:37:30.418Z,79.87
2023-04-02T23:39:57.118Z,79.77
2023-04-02T23:42:23.657Z,79.37
2023-04-02T23:44:50.301Z,79.62
2023-04-02T23:47:17.147Z,82.17
2023-04-02T23:49:47.864Z,82.87
2023-04-02T23:52:15.479Z,82.52
2023-04-02T23:54:42.089Z,82.57
2023-04-02T23:57:08.690Z,81.37
2023-04-02T23:59:35.410Z,82.19
